sensor_id;sensor_type;location;lat;lon;timestamp;P1;durP1;ratioP1;P2;durP2;ratioP2
43650;SDS011;29247;50.944;5.382;2024-03-29T00:01:47;0.40;;;0.40;;
43650;SDS011;29247;50.944;5.382;2024-03-29T00:04:12;0.30;;;0.30;;
43650;SDS011;29247;50.944;5.382;2024-03-29T00:06:38;1.20;;;0.40;;
43650;SDS011;29247;50.944;5.382;2024-03-29T00:09:04;0.30;;;0.30;;
43650;SDS011;29247;50.944;5.382;2024-03-29T00:11:34;0.52;;;0.50;;
43650;SDS011;29247;50.944;5.382;2024-03-29T00:14:00;0.30;;;0.30;;
43650;SDS011;29247;50.944;5.382;2024-03-29T00:16:27;0.30;;;0.30;;
43650;SDS011;29247;50.944;5.382;2024-03-29T00:18:53;0.20;;;0.20;;
43650;SDS011;29247;50.944;5.382;2024-03-29T00:21:19;0.30;;;0.30;;
43650;SDS011;29247;50.944;5.382;2024-03-29T00:23:45;0.30;;;0.30;;
43650;SDS011;29247;50.944;5.382;2024-03-29T00:26:11;0.40;;;0.40;;
43650;SDS011;29247;50.944;5.382;2024-03-29T00:28:37;0.70;;;0.22;;
43650;SDS011;29247;50.944;5.382;2024-03-29T00:31:06;0.25;;;0.25;;
43650;SDS011;29247;50.944;5.382;2024-03-29T00:33:32;0.30;;;0.30;;
43650;SDS011;29247;50.944;5.382;2024-03-29T00:35:57;0.40;;;0.40;;
43650;SDS011;29247;50.944;5.382;2024-03-29T00:40:53;0.30;;;0.30;;
43650;SDS011;29247;50.944;5.382;2024-03-29T00:43:19;0.30;;;0.30;;
43650;SDS011;29247;50.944;5.382;2024-03-29T00:45:45;0.30;;;0.30;;
43650;SDS011;29247;50.944;5.382;2024-03-29T00:48:13;0.32;;;0.32;;
43650;SDS011;29247;50.944;5.382;2024-03-29T00:50:40;0.40;;;0.40;;
43650;SDS011;29247;50.944;5.382;2024-03-29T00:53:06;0.40;;;0.40;;
43650;SDS011;29247;50.944;5.382;2024-03-29T00:55:33;0.30;;;0.30;;
43650;SDS011;29247;50.944;5.382;2024-03-29T00:58:01;1.27;;;0.65;;
43650;SDS011;29247;50.944;5.382;2024-03-29T01:00:26;2.72;;;0.30;;
43650;SDS011;29247;50.944;5.382;2024-03-29T01:02:52;0.40;;;0.32;;
43650;SDS011;29247;50.944;5.382;2024-03-29T01:05:20;0.30;;;0.30;;
43650;SDS011;29247;50.944;5.382;2024-03-29T01:07:46;0.50;;;0.50;;
43650;SDS011;29247;50.944;5.382;2024-03-29T01:10:14;0.30;;;0.30;;
43650;SDS011;29247;50.944;5.382;2024-03-29T01:12:41;0.30;;;0.30;;
43650;SDS011;29247;50.944;5.382;2024-03-29T01:15:07;0.28;;;0.28;;
43650;SDS011;29247;50.944;5.382;2024-03-29T01:17:35;0.30;;;0.30;;
43650;SDS011;29247;50.944;5.382;2024-03-29T01:20:03;0.30;;;0.30;;
43650;SDS011;29247;50.944;5.382;2024-03-29T01:22:29;0.30;;;0.30;;
43650;SDS011;29247;50.944;5.382;2024-03-29T01:25:00;0.30;;;0.30;;
43650;SDS011;29247;50.944;5.382;2024-03-29T01:27:30;0.45;;;0.45;;
43650;SDS011;29247;50.944;5.382;2024-03-29T01:29:56;0.63;;;0.35;;
43650;SDS011;29247;50.944;5.382;2024-03-29T01:32:22;0.30;;;0.30;;
43650;SDS011;29247;50.944;5.382;2024-03-29T01:34:50;1.02;;;0.30;;
43650;SDS011;29247;50.944;5.382;2024-03-29T01:37:16;0.30;;;0.30;;
43650;SDS011;29247;50.944;5.382;2024-03-29T01:39:44;0.40;;;0.40;;
43650;SDS011;29247;50.944;5.382;2024-03-29T01:42:12;0.40;;;0.40;;
43650;SDS011;29247;50.944;5.382;2024-03-29T01:44:38;0.30;;;0.30;;
43650;SDS011;29247;50.944;5.382;2024-03-29T01:47:06;0.30;;;0.30;;
43650;SDS011;29247;50.944;5.382;2024-03-29T01:49:34;0.30;;;0.30;;
43650;SDS011;29247;50.944;5.382;2024-03-29T01:51:59;0.30;;;0.30;;
43650;SDS011;29247;50.944;5.382;2024-03-29T01:54:27;0.40;;;0.40;;
43650;SDS011;29247;50.944;5.382;2024-03-29T01:56:56;0.30;;;0.30;;
43650;SDS011;29247;50.944;5.382;2024-03-29T01:59:23;0.40;;;0.40;;
43650;SDS011;29247;50.944;5.382;2024-03-29T02:01:53;0.32;;;0.32;;
43650;SDS011;29247;50.944;5.382;2024-03-29T02:04:19;0.38;;;0.38;;
43650;SDS011;29247;50.944;5.382;2024-03-29T02:06:46;0.30;;;0.30;;
43650;SDS011;29247;50.944;5.382;2024-03-29T02:09:12;0.30;;;0.30;;
43650;SDS011;29247;50.944;5.382;2024-03-29T02:11:38;0.45;;;0.45;;
43650;SDS011;29247;50.944;5.382;2024-03-29T02:14:04;0.30;;;0.30;;
43650;SDS011;29247;50.944;5.382;2024-03-29T02:16:31;0.20;;;0.20;;
43650;SDS011;29247;50.944;5.382;2024-03-29T02:18:59;0.88;;;0.50;;
43650;SDS011;29247;50.944;5.382;2024-03-29T02:21:28;0.35;;;0.35;;
43650;SDS011;29247;50.944;5.382;2024-03-29T02:24:08;0.30;;;0.30;;
43650;SDS011;29247;50.944;5.382;2024-03-29T02:26:39;0.70;;;0.70;;
43650;SDS011;29247;50.944;5.382;2024-03-29T02:29:09;0.40;;;0.40;;
43650;SDS011;29247;50.944;5.382;2024-03-29T02:31:37;0.30;;;0.30;;
43650;SDS011;29247;50.944;5.382;2024-03-29T02:34:03;0.25;;;0.25;;
43650;SDS011;29247;50.944;5.382;2024-03-29T02:36:29;0.52;;;0.30;;
43650;SDS011;29247;50.944;5.382;2024-03-29T02:39:00;0.30;;;0.30;;
43650;SDS011;29247;50.944;5.382;2024-03-29T02:41:25;0.32;;;0.32;;
43650;SDS011;29247;50.944;5.382;2024-03-29T02:43:51;1.20;;;0.30;;
43650;SDS011;29247;50.944;5.382;2024-03-29T02:46:18;1.00;;;0.30;;
43650;SDS011;29247;50.944;5.382;2024-03-29T02:48:44;1.42;;;0.30;;
43650;SDS011;29247;50.944;5.382;2024-03-29T02:51:10;0.30;;;0.30;;
43650;SDS011;29247;50.944;5.382;2024-03-29T02:53:35;0.30;;;0.30;;
43650;SDS011;29247;50.944;5.382;2024-03-29T02:56:01;0.20;;;0.20;;
43650;SDS011;29247;50.944;5.382;2024-03-29T02:58:27;0.40;;;0.40;;
43650;SDS011;29247;50.944;5.382;2024-03-29T03:00:55;0.20;;;0.20;;
43650;SDS011;29247;50.944;5.382;2024-03-29T03:03:29;0.40;;;0.40;;
43650;SDS011;29247;50.944;5.382;2024-03-29T03:05:57;1.45;;;1.20;;
43650;SDS011;29247;50.944;5.382;2024-03-29T03:08:23;0.20;;;0.20;;
43650;SDS011;29247;50.944;5.382;2024-03-29T03:11:07;0.30;;;0.30;;
43650;SDS011;29247;50.944;5.382;2024-03-29T03:13:33;0.30;;;0.30;;
43650;SDS011;29247;50.944;5.382;2024-03-29T03:15:58;0.30;;;0.30;;
43650;SDS011;29247;50.944;5.382;2024-03-29T03:18:27;0.30;;;0.30;;
43650;SDS011;29247;50.944;5.382;2024-03-29T03:20:56;0.30;;;0.30;;
43650;SDS011;29247;50.944;5.382;2024-03-29T03:25:57;0.35;;;0.35;;
43650;SDS011;29247;50.944;5.382;2024-03-29T03:28:24;0.40;;;0.40;;
43650;SDS011;29247;50.944;5.382;2024-03-29T03:30:50;0.30;;;0.30;;
43650;SDS011;29247;50.944;5.382;2024-03-29T03:33:19;0.20;;;0.20;;
43650;SDS011;29247;50.944;5.382;2024-03-29T03:35:45;0.30;;;0.30;;
43650;SDS011;29247;50.944;5.382;2024-03-29T03:38:16;0.45;;;0.38;;
43650;SDS011;29247;50.944;5.382;2024-03-29T03:40:42;0.70;;;0.70;;
43650;SDS011;29247;50.944;5.382;2024-03-29T03:43:08;0.30;;;0.30;;
43650;SDS011;29247;50.944;5.382;2024-03-29T03:45:40;0.30;;;0.30;;
43650;SDS011;29247;50.944;5.382;2024-03-29T03:48:09;2.75;;;0.65;;
43650;SDS011;29247;50.944;5.382;2024-03-29T03:50:37;0.30;;;0.30;;
43650;SDS011;29247;50.944;5.382;2024-03-29T03:53:06;0.73;;;0.32;;
43650;SDS011;29247;50.944;5.382;2024-03-29T03:55:36;0.40;;;0.40;;
43650;SDS011;29247;50.944;5.382;2024-03-29T03:58:02;0.32;;;0.32;;
43650;SDS011;29247;50.944;5.382;2024-03-29T04:00:28;0.30;;;0.30;;
43650;SDS011;29247;50.944;5.382;2024-03-29T04:02:54;0.30;;;0.30;;
43650;SDS011;29247;50.944;5.382;2024-03-29T04:05:23;0.30;;;0.30;;
43650;SDS011;29247;50.944;5.382;2024-03-29T04:07:50;0.20;;;0.20;;
43650;SDS011;29247;50.944;5.382;2024-03-29T04:10:18;0.80;;;0.80;;
43650;SDS011;29247;50.944;5.382;2024-03-29T04:12:43;0.30;;;0.30;;
43650;SDS011;29247;50.944;5.382;2024-03-29T04:15:09;0.40;;;0.40;;
43650;SDS011;29247;50.944;5.382;2024-03-29T04:17:35;1.17;;;0.40;;
43650;SDS011;29247;50.944;5.382;2024-03-29T04:20:01;1.40;;;0.57;;
43650;SDS011;29247;50.944;5.382;2024-03-29T04:22:27;0.52;;;0.47;;
43650;SDS011;29247;50.944;5.382;2024-03-29T04:24:55;0.30;;;0.30;;
43650;SDS011;29247;50.944;5.382;2024-03-29T04:27:21;0.30;;;0.30;;
43650;SDS011;29247;50.944;5.382;2024-03-29T04:29:52;0.40;;;0.40;;
43650;SDS011;29247;50.944;5.382;2024-03-29T04:32:18;0.30;;;0.30;;
43650;SDS011;29247;50.944;5.382;2024-03-29T04:34:48;1.17;;;0.40;;
43650;SDS011;29247;50.944;5.382;2024-03-29T04:37:17;0.30;;;0.30;;
43650;SDS011;29247;50.944;5.382;2024-03-29T04:39:43;0.30;;;0.30;;
43650;SDS011;29247;50.944;5.382;2024-03-29T04:42:09;0.30;;;0.30;;
43650;SDS011;29247;50.944;5.382;2024-03-29T04:44:36;0.30;;;0.30;;
43650;SDS011;29247;50.944;5.382;2024-03-29T04:47:01;0.25;;;0.25;;
43650;SDS011;29247;50.944;5.382;2024-03-29T04:49:27;0.38;;;0.38;;
43650;SDS011;29247;50.944;5.382;2024-03-29T04:52:00;1.13;;;0.30;;
43650;SDS011;29247;50.944;5.382;2024-03-29T04:54:26;0.30;;;0.30;;
43650;SDS011;29247;50.944;5.382;2024-03-29T04:56:54;0.30;;;0.30;;
43650;SDS011;29247;50.944;5.382;2024-03-29T04:59:20;0.28;;;0.28;;
43650;SDS011;29247;50.944;5.382;2024-03-29T05:01:49;0.20;;;0.20;;
43650;SDS011;29247;50.944;5.382;2024-03-29T05:04:24;0.30;;;0.30;;
43650;SDS011;29247;50.944;5.382;2024-03-29T05:06:56;0.40;;;0.40;;
43650;SDS011;29247;50.944;5.382;2024-03-29T05:09:27;0.30;;;0.30;;
43650;SDS011;29247;50.944;5.382;2024-03-29T05:11:53;0.20;;;0.20;;
43650;SDS011;29247;50.944;5.382;2024-03-29T05:14:20;0.30;;;0.30;;
43650;SDS011;29247;50.944;5.382;2024-03-29T05:16:47;0.20;;;0.20;;
43650;SDS011;29247;50.944;5.382;2024-03-29T05:19:14;0.30;;;0.30;;
43650;SDS011;29247;50.944;5.382;2024-03-29T05:21:42;0.40;;;0.40;;
43650;SDS011;29247;50.944;5.382;2024-03-29T05:24:08;0.40;;;0.40;;
43650;SDS011;29247;50.944;5.382;2024-03-29T05:26:34;0.30;;;0.30;;
43650;SDS011;29247;50.944;5.382;2024-03-29T05:29:00;1.85;;;0.30;;
43650;SDS011;29247;50.944;5.382;2024-03-29T05:31:28;0.40;;;0.40;;
43650;SDS011;29247;50.944;5.382;2024-03-29T05:33:56;0.40;;;0.40;;
43650;SDS011;29247;50.944;5.382;2024-03-29T05:36:21;0.40;;;0.40;;
43650;SDS011;29247;50.944;5.382;2024-03-29T05:38:50;0.30;;;0.30;;
43650;SDS011;29247;50.944;5.382;2024-03-29T05:41:15;0.30;;;0.30;;
43650;SDS011;29247;50.944;5.382;2024-03-29T05:43:43;0.32;;;0.32;;
43650;SDS011;29247;50.944;5.382;2024-03-29T05:46:09;0.30;;;0.30;;
43650;SDS011;29247;50.944;5.382;2024-03-29T05:48:35;0.30;;;0.30;;
43650;SDS011;29247;50.944;5.382;2024-03-29T05:51:00;0.25;;;0.25;;
43650;SDS011;29247;50.944;5.382;2024-03-29T05:53:26;0.28;;;0.28;;
43650;SDS011;29247;50.944;5.382;2024-03-29T05:55:52;0.35;;;0.30;;
43650;SDS011;29247;50.944;5.382;2024-03-29T05:58:20;0.30;;;0.30;;
43650;SDS011;29247;50.944;5.382;2024-03-29T06:00:46;0.28;;;0.28;;
43650;SDS011;29247;50.944;5.382;2024-03-29T06:03:11;0.30;;;0.30;;
43650;SDS011;29247;50.944;5.382;2024-03-29T06:05:40;0.20;;;0.20;;
43650;SDS011;29247;50.944;5.382;2024-03-29T06:08:10;0.30;;;0.30;;
43650;SDS011;29247;50.944;5.382;2024-03-29T06:10:38;0.30;;;0.30;;
43650;SDS011;29247;50.944;5.382;2024-03-29T06:13:04;0.20;;;0.20;;
43650;SDS011;29247;50.944;5.382;2024-03-29T06:15:52;0.40;;;0.40;;
43650;SDS011;29247;50.944;5.382;2024-03-29T06:18:39;0.30;;;0.30;;
43650;SDS011;29247;50.944;5.382;2024-03-29T06:21:05;0.40;;;0.40;;
43650;SDS011;29247;50.944;5.382;2024-03-29T06:23:31;3.40;;;0.40;;
43650;SDS011;29247;50.944;5.382;2024-03-29T06:25:56;0.32;;;0.32;;
43650;SDS011;29247;50.944;5.382;2024-03-29T06:28:22;0.52;;;0.50;;
43650;SDS011;29247;50.944;5.382;2024-03-29T06:30:47;1.00;;;0.32;;
43650;SDS011;29247;50.944;5.382;2024-03-29T06:33:13;0.30;;;0.30;;
43650;SDS011;29247;50.944;5.382;2024-03-29T06:35:39;0.30;;;0.30;;
43650;SDS011;29247;50.944;5.382;2024-03-29T06:38:07;2.15;;;0.40;;
43650;SDS011;29247;50.944;5.382;2024-03-29T06:40:34;0.40;;;0.40;;
43650;SDS011;29247;50.944;5.382;2024-03-29T06:43:02;1.10;;;0.80;;
43650;SDS011;29247;50.944;5.382;2024-03-29T06:45:29;0.30;;;0.30;;
43650;SDS011;29247;50.944;5.382;2024-03-29T06:47:55;1.50;;;0.30;;
43650;SDS011;29247;50.944;5.382;2024-03-29T06:50:20;0.30;;;0.30;;
43650;SDS011;29247;50.944;5.382;2024-03-29T06:52:46;0.43;;;0.32;;
43650;SDS011;29247;50.944;5.382;2024-03-29T06:55:12;2.05;;;0.40;;
43650;SDS011;29247;50.944;5.382;2024-03-29T06:57:40;0.40;;;0.40;;
43650;SDS011;29247;50.944;5.382;2024-03-29T07:00:05;0.30;;;0.30;;
43650;SDS011;29247;50.944;5.382;2024-03-29T07:02:33;0.50;;;0.50;;
43650;SDS011;29247;50.944;5.382;2024-03-29T07:04:59;1.92;;;0.50;;
43650;SDS011;29247;50.944;5.382;2024-03-29T07:07:34;0.40;;;0.40;;
43650;SDS011;29247;50.944;5.382;2024-03-29T07:10:00;0.30;;;0.30;;
43650;SDS011;29247;50.944;5.382;2024-03-29T07:12:26;0.40;;;0.40;;
43650;SDS011;29247;50.944;5.382;2024-03-29T07:14:52;0.30;;;0.30;;
43650;SDS011;29247;50.944;5.382;2024-03-29T07:17:17;0.55;;;0.30;;
43650;SDS011;29247;50.944;5.382;2024-03-29T07:19:43;0.40;;;0.40;;
43650;SDS011;29247;50.944;5.382;2024-03-29T07:22:12;0.30;;;0.30;;
43650;SDS011;29247;50.944;5.382;2024-03-29T07:24:39;0.80;;;0.40;;
43650;SDS011;29247;50.944;5.382;2024-03-29T07:27:05;0.35;;;0.32;;
43650;SDS011;29247;50.944;5.382;2024-03-29T07:29:31;0.40;;;0.40;;
43650;SDS011;29247;50.944;5.382;2024-03-29T07:32:01;0.30;;;0.30;;
43650;SDS011;29247;50.944;5.382;2024-03-29T07:34:29;0.80;;;0.50;;
43650;SDS011;29247;50.944;5.382;2024-03-29T07:36:54;0.30;;;0.30;;
43650;SDS011;29247;50.944;5.382;2024-03-29T07:39:20;0.40;;;0.40;;
43650;SDS011;29247;50.944;5.382;2024-03-29T07:41:47;0.38;;;0.38;;
43650;SDS011;29247;50.944;5.382;2024-03-29T07:44:13;2.13;;;0.50;;
43650;SDS011;29247;50.944;5.382;2024-03-29T07:46:39;4.50;;;0.60;;
43650;SDS011;29247;50.944;5.382;2024-03-29T07:49:07;17.75;;;1.80;;
43650;SDS011;29247;50.944;5.382;2024-03-29T07:51:33;7.70;;;2.45;;
43650;SDS011;29247;50.944;5.382;2024-03-29T07:53:59;12.05;;;2.50;;
43650;SDS011;29247;50.944;5.382;2024-03-29T07:56:27;12.70;;;2.97;;
43650;SDS011;29247;50.944;5.382;2024-03-29T07:58:53;13.50;;;3.45;;
43650;SDS011;29247;50.944;5.382;2024-03-29T08:01:23;21.60;;;3.97;;
43650;SDS011;29247;50.944;5.382;2024-03-29T08:03:54;15.97;;;2.97;;
43650;SDS011;29247;50.944;5.382;2024-03-29T08:06:19;34.83;;;6.60;;
43650;SDS011;29247;50.944;5.382;2024-03-29T08:08:48;33.88;;;6.88;;
43650;SDS011;29247;50.944;5.382;2024-03-29T08:11:15;17.65;;;6.22;;
43650;SDS011;29247;50.944;5.382;2024-03-29T08:13:41;21.13;;;3.83;;
43650;SDS011;29247;50.944;5.382;2024-03-29T08:16:09;22.50;;;5.53;;
43650;SDS011;29247;50.944;5.382;2024-03-29T08:18:35;40.70;;;6.45;;
43650;SDS011;29247;50.944;5.382;2024-03-29T08:21:04;30.15;;;4.93;;
43650;SDS011;29247;50.944;5.382;2024-03-29T08:23:36;22.70;;;4.57;;
43650;SDS011;29247;50.944;5.382;2024-03-29T08:26:06;19.38;;;4.25;;
43650;SDS011;29247;50.944;5.382;2024-03-29T08:28:34;14.88;;;3.63;;
43650;SDS011;29247;50.944;5.382;2024-03-29T08:31:03;22.80;;;3.58;;
43650;SDS011;29247;50.944;5.382;2024-03-29T08:33:33;15.75;;;3.67;;
43650;SDS011;29247;50.944;5.382;2024-03-29T08:36:01;13.85;;;3.67;;
43650;SDS011;29247;50.944;5.382;2024-03-29T08:38:28;8.90;;;3.83;;
43650;SDS011;29247;50.944;5.382;2024-03-29T08:40:56;14.38;;;3.05;;
43650;SDS011;29247;50.944;5.382;2024-03-29T08:43:21;17.08;;;2.53;;
43650;SDS011;29247;50.944;5.382;2024-03-29T08:45:47;15.50;;;3.33;;
43650;SDS011;29247;50.944;5.382;2024-03-29T08:48:13;10.65;;;3.28;;
43650;SDS011;29247;50.944;5.382;2024-03-29T08:50:39;14.13;;;2.45;;
43650;SDS011;29247;50.944;5.382;2024-03-29T08:53:05;10.25;;;2.28;;
43650;SDS011;29247;50.944;5.382;2024-03-29T08:55:31;7.85;;;1.98;;
43650;SDS011;29247;50.944;5.382;2024-03-29T08:58:01;14.23;;;2.85;;
43650;SDS011;29247;50.944;5.382;2024-03-29T09:00:30;4.85;;;1.60;;
43650;SDS011;29247;50.944;5.382;2024-03-29T09:02:56;8.63;;;2.45;;
43650;SDS011;29247;50.944;5.382;2024-03-29T09:05:25;14.02;;;2.88;;
43650;SDS011;29247;50.944;5.382;2024-03-29T09:07:56;9.20;;;2.95;;
43650;SDS011;29247;50.944;5.382;2024-03-29T09:10:25;6.55;;;1.45;;
43650;SDS011;29247;50.944;5.382;2024-03-29T09:12:53;4.95;;;1.60;;
43650;SDS011;29247;50.944;5.382;2024-03-29T09:15:22;4.50;;;2.28;;
43650;SDS011;29247;50.944;5.382;2024-03-29T09:17:48;6.10;;;1.88;;
43650;SDS011;29247;50.944;5.382;2024-03-29T09:20:13;5.90;;;1.90;;
43650;SDS011;29247;50.944;5.382;2024-03-29T09:22:39;7.85;;;1.95;;
43650;SDS011;29247;50.944;5.382;2024-03-29T09:25:07;11.73;;;1.92;;
43650;SDS011;29247;50.944;5.382;2024-03-29T09:27:41;9.10;;;1.75;;
43650;SDS011;29247;50.944;5.382;2024-03-29T09:30:08;7.18;;;1.77;;
43650;SDS011;29247;50.944;5.382;2024-03-29T09:32:36;2.15;;;1.40;;
43650;SDS011;29247;50.944;5.382;2024-03-29T09:35:04;3.75;;;1.33;;
43650;SDS011;29247;50.944;5.382;2024-03-29T09:37:32;2.17;;;0.98;;
43650;SDS011;29247;50.944;5.382;2024-03-29T09:40:01;2.10;;;1.10;;
43650;SDS011;29247;50.944;5.382;2024-03-29T09:42:31;4.00;;;1.48;;
43650;SDS011;29247;50.944;5.382;2024-03-29T09:44:58;3.58;;;1.77;;
43650;SDS011;29247;50.944;5.382;2024-03-29T09:47:26;3.60;;;1.38;;
43650;SDS011;29247;50.944;5.382;2024-03-29T09:49:58;11.00;;;1.88;;
43650;SDS011;29247;50.944;5.382;2024-03-29T09:52:27;6.72;;;1.40;;
43650;SDS011;29247;50.944;5.382;2024-03-29T09:54:54;6.38;;;1.52;;
43650;SDS011;29247;50.944;5.382;2024-03-29T09:57:21;3.92;;;1.20;;
43650;SDS011;29247;50.944;5.382;2024-03-29T09:59:49;7.30;;;1.55;;
43650;SDS011;29247;50.944;5.382;2024-03-29T10:02:15;1.77;;;0.88;;
43650;SDS011;29247;50.944;5.382;2024-03-29T10:04:47;2.80;;;0.80;;
43650;SDS011;29247;50.944;5.382;2024-03-29T10:07:16;3.70;;;1.30;;
43650;SDS011;29247;50.944;5.382;2024-03-29T10:09:43;6.68;;;1.63;;
43650;SDS011;29247;50.944;5.382;2024-03-29T10:12:09;7.43;;;1.38;;
43650;SDS011;29247;50.944;5.382;2024-03-29T10:14:47;3.55;;;1.40;;
43650;SDS011;29247;50.944;5.382;2024-03-29T10:17:32;2.63;;;1.00;;
43650;SDS011;29247;50.944;5.382;2024-03-29T10:20:03;4.35;;;1.02;;
43650;SDS011;29247;50.944;5.382;2024-03-29T10:25:05;0.70;;;0.70;;
43650;SDS011;29247;50.944;5.382;2024-03-29T10:27:34;2.13;;;1.23;;
43650;SDS011;29247;50.944;5.382;2024-03-29T10:29:59;3.60;;;0.77;;
43650;SDS011;29247;50.944;5.382;2024-03-29T10:32:25;4.13;;;0.73;;
43650;SDS011;29247;50.944;5.382;2024-03-29T10:34:53;6.60;;;1.13;;
43650;SDS011;29247;50.944;5.382;2024-03-29T10:37:18;0.65;;;0.60;;
43650;SDS011;29247;50.944;5.382;2024-03-29T10:39:51;1.63;;;0.70;;
43650;SDS011;29247;50.944;5.382;2024-03-29T10:42:18;0.90;;;0.73;;
43650;SDS011;29247;50.944;5.382;2024-03-29T10:44:50;5.18;;;1.15;;
43650;SDS011;29247;50.944;5.382;2024-03-29T10:47:19;3.10;;;0.63;;
43650;SDS011;29247;50.944;5.382;2024-03-29T10:49:51;3.30;;;0.60;;
43650;SDS011;29247;50.944;5.382;2024-03-29T10:52:18;1.25;;;0.90;;
43650;SDS011;29247;50.944;5.382;2024-03-29T10:54:48;1.75;;;0.65;;
43650;SDS011;29247;50.944;5.382;2024-03-29T10:57:25;2.08;;;0.73;;
43650;SDS011;29247;50.944;5.382;2024-03-29T11:05:28;5.68;;;1.00;;
43650;SDS011;29247;50.944;5.382;2024-03-29T11:07:56;3.10;;;0.77;;
43650;SDS011;29247;50.944;5.382;2024-03-29T11:10:33;4.97;;;0.80;;
43650;SDS011;29247;50.944;5.382;2024-03-29T11:13:10;1.50;;;0.60;;
43650;SDS011;29247;50.944;5.382;2024-03-29T11:15:38;1.70;;;0.88;;
43650;SDS011;29247;50.944;5.382;2024-03-29T11:18:06;1.48;;;0.70;;
43650;SDS011;29247;50.944;5.382;2024-03-29T11:20:33;0.95;;;0.52;;
43650;SDS011;29247;50.944;5.382;2024-03-29T11:23:07;0.88;;;0.35;;
43650;SDS011;29247;50.944;5.382;2024-03-29T11:28:06;3.13;;;0.65;;
43650;SDS011;29247;50.944;5.382;2024-03-29T11:30:48;1.20;;;0.73;;
43650;SDS011;29247;50.944;5.382;2024-03-29T11:36:10;1.40;;;0.68;;
43650;SDS011;29247;50.944;5.382;2024-03-29T11:39:19;5.63;;;0.50;;
43650;SDS011;29247;50.944;5.382;2024-03-29T11:41:46;0.55;;;0.40;;
43650;SDS011;29247;50.944;5.382;2024-03-29T11:44:15;9.13;;;0.73;;
43650;SDS011;29247;50.944;5.382;2024-03-29T11:46:42;1.73;;;0.70;;
43650;SDS011;29247;50.944;5.382;2024-03-29T11:49:09;1.75;;;0.68;;
43650;SDS011;29247;50.944;5.382;2024-03-29T11:51:35;0.93;;;0.63;;
43650;SDS011;29247;50.944;5.382;2024-03-29T11:54:03;0.45;;;0.40;;
43650;SDS011;29247;50.944;5.382;2024-03-29T11:56:28;0.65;;;0.65;;
43650;SDS011;29247;50.944;5.382;2024-03-29T11:58:54;0.52;;;0.50;;
43650;SDS011;29247;50.944;5.382;2024-03-29T12:01:25;1.35;;;0.50;;
43650;SDS011;29247;50.944;5.382;2024-03-29T12:03:52;0.30;;;0.30;;
43650;SDS011;29247;50.944;5.382;2024-03-29T12:06:19;0.68;;;0.60;;
43650;SDS011;29247;50.944;5.382;2024-03-29T12:08:45;4.95;;;0.40;;
43650;SDS011;29247;50.944;5.382;2024-03-29T12:11:11;0.40;;;0.40;;
43650;SDS011;29247;50.944;5.382;2024-03-29T12:13:36;0.40;;;0.40;;
43650;SDS011;29247;50.944;5.382;2024-03-29T12:16:05;0.95;;;0.50;;
43650;SDS011;29247;50.944;5.382;2024-03-29T12:18:35;2.28;;;0.50;;
43650;SDS011;29247;50.944;5.382;2024-03-29T12:21:01;1.77;;;0.55;;
43650;SDS011;29247;50.944;5.382;2024-03-29T12:23:27;0.80;;;0.40;;
43650;SDS011;29247;50.944;5.382;2024-03-29T12:25:54;1.55;;;0.40;;
43650;SDS011;29247;50.944;5.382;2024-03-29T12:28:22;2.15;;;0.60;;
43650;SDS011;29247;50.944;5.382;2024-03-29T12:30:49;0.77;;;0.40;;
43650;SDS011;29247;50.944;5.382;2024-03-29T12:33:18;0.65;;;0.50;;
43650;SDS011;29247;50.944;5.382;2024-03-29T12:35:46;0.68;;;0.68;;
43650;SDS011;29247;50.944;5.382;2024-03-29T12:38:17;2.92;;;0.98;;
43650;SDS011;29247;50.944;5.382;2024-03-29T12:40:44;0.70;;;0.40;;
43650;SDS011;29247;50.944;5.382;2024-03-29T12:43:15;0.30;;;0.30;;
43650;SDS011;29247;50.944;5.382;2024-03-29T12:45:48;0.32;;;0.32;;
43650;SDS011;29247;50.944;5.382;2024-03-29T12:48:15;1.92;;;0.82;;
43650;SDS011;29247;50.944;5.382;2024-03-29T12:50:43;0.70;;;0.70;;
43650;SDS011;29247;50.944;5.382;2024-03-29T12:53:11;3.38;;;0.77;;
43650;SDS011;29247;50.944;5.382;2024-03-29T12:55:41;1.02;;;0.43;;
43650;SDS011;29247;50.944;5.382;2024-03-29T12:58:13;2.05;;;0.57;;
43650;SDS011;29247;50.944;5.382;2024-03-29T13:00:41;1.88;;;1.08;;
43650;SDS011;29247;50.944;5.382;2024-03-29T13:03:12;2.30;;;0.82;;
43650;SDS011;29247;50.944;5.382;2024-03-29T13:05:38;0.60;;;0.60;;
43650;SDS011;29247;50.944;5.382;2024-03-29T13:08:11;1.98;;;0.60;;
43650;SDS011;29247;50.944;5.382;2024-03-29T13:10:38;4.63;;;1.58;;
43650;SDS011;29247;50.944;5.382;2024-03-29T13:13:06;2.40;;;0.50;;
43650;SDS011;29247;50.944;5.382;2024-03-29T13:15:33;2.42;;;0.63;;
43650;SDS011;29247;50.944;5.382;2024-03-29T13:18:03;3.00;;;0.65;;
43650;SDS011;29247;50.944;5.382;2024-03-29T13:20:30;0.30;;;0.30;;
43650;SDS011;29247;50.944;5.382;2024-03-29T13:23:02;0.55;;;0.55;;
43650;SDS011;29247;50.944;5.382;2024-03-29T13:25:29;1.02;;;0.50;;
43650;SDS011;29247;50.944;5.382;2024-03-29T13:27:58;1.13;;;0.60;;
43650;SDS011;29247;50.944;5.382;2024-03-29T13:30:24;5.22;;;0.60;;
43650;SDS011;29247;50.944;5.382;2024-03-29T13:32:51;2.03;;;0.57;;
43650;SDS011;29247;50.944;5.382;2024-03-29T13:35:22;5.10;;;0.50;;
43650;SDS011;29247;50.944;5.382;2024-03-29T13:37:53;1.80;;;0.68;;
43650;SDS011;29247;50.944;5.382;2024-03-29T13:40:20;0.63;;;0.40;;
43650;SDS011;29247;50.944;5.382;2024-03-29T13:42:47;0.40;;;0.40;;
43650;SDS011;29247;50.944;5.382;2024-03-29T13:45:15;0.85;;;0.47;;
43650;SDS011;29247;50.944;5.382;2024-03-29T13:47:41;3.63;;;0.52;;
43650;SDS011;29247;50.944;5.382;2024-03-29T13:50:08;0.65;;;0.60;;
43650;SDS011;29247;50.944;5.382;2024-03-29T13:52:40;0.60;;;0.60;;
43650;SDS011;29247;50.944;5.382;2024-03-29T13:55:08;0.32;;;0.30;;
43650;SDS011;29247;50.944;5.382;2024-03-29T13:57:34;0.90;;;0.43;;
43650;SDS011;29247;50.944;5.382;2024-03-29T14:00:02;0.30;;;0.30;;
43650;SDS011;29247;50.944;5.382;2024-03-29T14:02:29;0.55;;;0.50;;
43650;SDS011;29247;50.944;5.382;2024-03-29T14:04:55;4.28;;;0.57;;
43650;SDS011;29247;50.944;5.382;2024-03-29T14:07:24;1.33;;;0.68;;
43650;SDS011;29247;50.944;5.382;2024-03-29T14:09:52;4.22;;;0.73;;
43650;SDS011;29247;50.944;5.382;2024-03-29T14:12:21;1.10;;;0.30;;
43650;SDS011;29247;50.944;5.382;2024-03-29T14:14:49;0.38;;;0.38;;
43650;SDS011;29247;50.944;5.382;2024-03-29T14:17:18;0.93;;;0.50;;
43650;SDS011;29247;50.944;5.382;2024-03-29T14:19:46;0.40;;;0.40;;
43650;SDS011;29247;50.944;5.382;2024-03-29T14:22:14;0.30;;;0.30;;
43650;SDS011;29247;50.944;5.382;2024-03-29T14:24:44;0.65;;;0.40;;
43650;SDS011;29247;50.944;5.382;2024-03-29T14:27:10;0.47;;;0.40;;
43650;SDS011;29247;50.944;5.382;2024-03-29T14:29:38;0.35;;;0.35;;
43650;SDS011;29247;50.944;5.382;2024-03-29T14:32:06;5.18;;;0.57;;
43650;SDS011;29247;50.944;5.382;2024-03-29T14:34:35;0.30;;;0.30;;
43650;SDS011;29247;50.944;5.382;2024-03-29T14:37:04;1.88;;;0.40;;
43650;SDS011;29247;50.944;5.382;2024-03-29T14:39:30;0.30;;;0.30;;
43650;SDS011;29247;50.944;5.382;2024-03-29T14:41:56;0.47;;;0.43;;
43650;SDS011;29247;50.944;5.382;2024-03-29T14:44:24;0.40;;;0.40;;
43650;SDS011;29247;50.944;5.382;2024-03-29T14:46:50;0.40;;;0.40;;
43650;SDS011;29247;50.944;5.382;2024-03-29T14:49:17;0.50;;;0.50;;
43650;SDS011;29247;50.944;5.382;2024-03-29T14:51:44;2.38;;;0.63;;
43650;SDS011;29247;50.944;5.382;2024-03-29T14:54:10;1.60;;;0.80;;
43650;SDS011;29247;50.944;5.382;2024-03-29T14:56:38;3.83;;;0.55;;
43650;SDS011;29247;50.944;5.382;2024-03-29T14:59:06;0.32;;;0.32;;
43650;SDS011;29247;50.944;5.382;2024-03-29T15:01:35;0.20;;;0.20;;
43650;SDS011;29247;50.944;5.382;2024-03-29T15:04:04;0.28;;;0.28;;
43650;SDS011;29247;50.944;5.382;2024-03-29T15:06:29;0.47;;;0.40;;
43650;SDS011;29247;50.944;5.382;2024-03-29T15:08:55;0.77;;;0.40;;